createdAt,value
2018-02-25T00:00:04.705Z,-2.7
2018-02-25T00:05:02.716Z,-2.9
2018-02-25T00:10:03.179Z,-3.0
2018-02-25T00:15:02.583Z,-2.9
2018-02-25T00:20:03.042Z,-2.9
2018-02-25T00:25:02.489Z,-2.9
2018-02-25T00:30:03.006Z,-2.9
2018-02-25T00:35:02.457Z,-3.0
2018-02-25T00:40:02.943Z,-3.0
2018-02-25T00:45:02.392Z,-3.2
2018-02-25T00:50:02.867Z,-3.0
2018-02-25T00:55:03.413Z,-3.2
2018-02-25T01:00:02.888Z,-3.0
2018-02-25T01:05:02.608Z,-3.2
2018-02-25T01:10:03.167Z,-3.2
2018-02-25T01:15:02.625Z,-3.2
2018-02-25T01:20:02.460Z,-3.2
2018-02-25T01:25:02.844Z,-3.5
2018-02-25T01:30:03.259Z,-3.5
2018-02-25T01:35:02.816Z,-3.5
2018-02-25T01:40:03.308Z,-3.5
2018-02-25T01:45:02.686Z,-3.5
2018-02-25T01:50:03.165Z,-3.7
2018-02-25T01:55:02.501Z,-3.7
2018-02-25T02:00:02.898Z,-3.7
2018-02-25T02:05:03.347Z,-3.5
2018-02-25T02:10:02.831Z,-3.7
2018-02-25T02:15:03.304Z,-3.7
2018-02-25T02:20:02.715Z,-3.7
2018-02-25T02:25:03.186Z,-3.7
2018-02-25T02:30:02.669Z,-3.7
2018-02-25T02:35:03.175Z,-3.9
2018-02-25T02:40:02.635Z,-3.9
2018-02-25T02:45:03.137Z,-3.9
2018-02-25T02:50:02.528Z,-3.9
2018-02-25T02:55:03.128Z,-3.9
2018-02-25T03:00:02.518Z,-4.0
2018-02-25T03:05:02.943Z,-4.0
2018-02-25T03:10:02.509Z,-4.0
2018-02-25T03:15:02.946Z,-4.0
2018-02-25T03:20:03.365Z,-4.0
2018-02-25T03:25:02.799Z,-4.0
2018-02-25T03:30:03.209Z,-4.3
2018-02-25T03:35:02.643Z,-4.3
2018-02-25T03:40:03.147Z,-4.3
2018-02-25T03:45:02.557Z,-4.3
2018-02-25T03:50:03.013Z,-4.3
2018-02-25T03:55:02.505Z,-4.3
2018-02-25T04:00:03.248Z,-4.5
2018-02-25T04:05:02.659Z,-4.5
2018-02-25T04:10:03.128Z,-4.5
2018-02-25T04:15:02.609Z,-4.5
2018-02-25T04:20:03.098Z,-4.5
2018-02-25T04:25:02.490Z,-4.5
2018-02-25T04:30:02.897Z,-4.5
2018-02-25T04:35:02.417Z,-4.5
2018-02-25T04:40:02.945Z,-4.6
2018-02-25T04:45:03.354Z,-4.6
2018-02-25T04:50:02.784Z,-4.6
2018-02-25T04:55:03.324Z,-4.6
2018-02-25T05:00:02.777Z,-4.6
2018-02-25T05:05:03.214Z,-4.6
2018-02-25T05:10:02.751Z,-4.6
2018-02-25T05:15:03.336Z,-4.9
2018-02-25T05:20:02.916Z,-4.9
2018-02-25T05:25:03.431Z,-4.9
2018-02-25T05:30:03.139Z,-4.9
2018-02-25T05:35:02.591Z,-4.9
2018-02-25T05:40:03.101Z,-4.9
2018-02-25T05:45:02.490Z,-5.1
2018-02-25T05:50:03.346Z,-5.1
2018-02-25T05:55:02.754Z,-5.1
2018-02-25T06:00:03.272Z,-5.1
2018-02-25T06:05:02.727Z,-5.4
2018-02-25T06:10:03.314Z,-5.4
2018-02-25T06:15:02.781Z,-5.4
2018-02-25T06:20:03.263Z,-5.5
2018-02-25T06:25:02.648Z,-5.5
2018-02-25T06:30:03.086Z,-5.4
2018-02-25T06:35:02.501Z,-5.4
2018-02-25T06:40:02.939Z,-5.5
2018-02-25T06:45:03.403Z,-5.5
2018-02-25T06:50:02.828Z,-5.4
2018-02-25T06:55:03.345Z,-5.5
2018-02-25T07:00:02.771Z,-5.5
2018-02-25T07:05:03.230Z,-5.4
2018-02-25T07:10:02.692Z,-5.4
2018-02-25T07:15:03.217Z,-5.4
2018-02-25T07:20:02.838Z,-5.4
2018-02-25T07:25:03.328Z,-5.4
2018-02-25T07:30:02.751Z,-5.1
2018-02-25T07:35:03.295Z,-5.1
2018-02-25T07:40:02.854Z,-5.1
2018-02-25T07:45:03.342Z,-4.9
2018-02-25T07:50:02.790Z,-4.9
2018-02-25T07:55:03.271Z,-4.6
2018-02-25T08:00:02.664Z,-4.5
2018-02-25T08:05:03.170Z,-4.5
2018-02-25T08:10:02.606Z,-4.5
2018-02-25T08:15:03.174Z,-4.3
2018-02-25T08:20:02.709Z,-4.0
2018-02-25T08:25:03.250Z,-3.9
2018-02-25T08:30:02.624Z,-3.5
2018-02-25T08:35:03.206Z,-3.0
2018-02-25T08:40:02.673Z,-3.0
2018-02-25T08:45:03.175Z,-3.0
2018-02-25T08:50:02.669Z,-2.5
2018-02-25T08:55:03.174Z,-2.0
2018-02-25T09:00:02.615Z,-1.7
2018-02-25T09:05:03.024Z,-1.2
2018-02-25T09:10:02.508Z,-1.7
2018-02-25T09:15:02.931Z,-1.7
2018-02-25T09:20:02.434Z,-1.5
2018-02-25T09:25:02.927Z,-0.8
2018-02-25T09:30:02.499Z,-0.8
2018-02-25T09:35:02.932Z,0.0
2018-02-25T09:40:02.465Z,0.1
2018-02-25T09:45:02.874Z,0.0
2018-02-25T09:50:02.542Z,0.0
2018-02-25T09:55:02.987Z,0.1
2018-02-25T10:00:02.480Z,-0.3
2018-02-25T10:05:03.014Z,0.0
2018-02-25T10:10:02.598Z,-0.3
2018-02-25T10:15:03.103Z,0.3
2018-02-25T10:20:02.587Z,-0.6
2018-02-25T10:25:03.119Z,0.3
2018-02-25T10:30:02.604Z,0.6
2018-02-25T10:35:03.142Z,0.4
2018-02-25T10:40:02.624Z,0.8
2018-02-25T10:45:03.163Z,0.8
2018-02-25T10:50:02.725Z,0.4
2018-02-25T10:55:03.255Z,1.7
2018-02-25T11:00:02.830Z,1.7
2018-02-25T11:05:03.353Z,1.6
2018-02-25T11:10:02.850Z,1.7
2018-02-25T11:15:02.813Z,1.8
2018-02-25T11:20:03.335Z,1.3
2018-02-25T11:25:02.865Z,1.2
2018-02-25T11:30:03.369Z,2.0
2018-02-25T11:35:02.855Z,1.3
2018-02-25T11:40:02.423Z,2.4
2018-02-25T11:45:02.992Z,2.4
2018-02-25T11:50:02.460Z,2.2
2018-02-25T11:55:03.015Z,2.0
2018-02-25T12:00:02.463Z,0.8
2018-02-25T12:05:02.960Z,1.7
2018-02-25T12:10:02.583Z,1.8
2018-02-25T12:15:03.118Z,2.4
2018-02-25T12:20:02.616Z,1.7
2018-02-25T12:25:03.120Z,2.0
2018-02-25T12:30:02.641Z,3.0
2018-02-25T12:35:03.117Z,3.2
2018-02-25T12:40:02.700Z,2.7
2018-02-25T12:45:02.567Z,3.0
2018-02-25T12:50:03.052Z,2.7
2018-02-25T12:55:02.542Z,2.9
2018-02-25T13:00:03.072Z,1.8
2018-02-25T13:05:02.556Z,3.2
2018-02-25T13:10:03.183Z,2.0
2018-02-25T13:15:02.602Z,1.7
2018-02-25T13:20:03.020Z,3.0
2018-02-25T13:25:02.458Z,3.0
2018-02-25T13:30:02.924Z,2.4
2018-02-25T13:35:02.435Z,1.8
2018-02-25T13:45:02.422Z,1.8
2018-02-25T13:50:02.931Z,1.8
2018-02-25T13:55:03.320Z,1.3
2018-02-25T14:00:02.815Z,3.0
2018-02-25T14:05:03.334Z,3.0
2018-02-25T14:10:02.994Z,3.0
2018-02-25T14:15:02.448Z,2.2
2018-02-25T14:25:03.283Z,1.7
2018-02-25T14:30:02.725Z,2.4
2018-02-25T14:35:03.234Z,3.0
2018-02-25T14:40:02.737Z,3.0
2018-02-25T14:45:03.208Z,2.5
2018-02-25T14:50:02.694Z,1.7
2018-02-25T14:55:03.172Z,3.0
2018-02-25T15:00:02.570Z,2.2
2018-02-25T15:05:03.039Z,1.8
2018-02-25T15:10:02.674Z,2.2
2018-02-25T15:15:03.184Z,2.0
2018-02-25T15:25:03.163Z,2.0
2018-02-25T15:30:02.620Z,1.7
2018-02-25T15:35:03.161Z,1.1
2018-02-25T15:40:02.944Z,1.3
2018-02-25T15:45:02.687Z,0.8
2018-02-25T15:50:03.246Z,0.6
2018-02-25T15:55:02.735Z,1.2
2018-02-25T16:00:03.159Z,0.7
2018-02-25T16:05:02.695Z,0.6
2018-02-25T16:10:03.254Z,0.4
2018-02-25T16:15:02.765Z,0.8
2018-02-25T16:20:03.395Z,0.0
2018-02-25T16:25:02.819Z,-0.8
2018-02-25T16:30:03.290Z,-1.1
2018-02-25T16:35:02.788Z,-1.2
2018-02-25T16:40:03.359Z,-1.2
2018-02-25T16:45:02.789Z,-1.5
2018-02-25T16:50:03.309Z,-1.7
2018-02-25T16:55:02.719Z,-1.7
2018-02-25T17:00:03.116Z,-1.7
2018-02-25T17:05:02.643Z,-1.7
2018-02-25T17:10:03.193Z,-1.7
2018-02-25T17:15:02.638Z,-1.5
2018-02-25T17:20:03.143Z,-1.5
2018-02-25T17:25:02.588Z,-1.5
2018-02-25T17:30:03.052Z,-1.5
2018-02-25T17:35:02.539Z,-1.5
2018-02-25T17:40:03.154Z,-1.7
2018-02-25T17:45:02.698Z,-1.7
2018-02-25T17:50:03.150Z,-1.7
2018-02-25T17:55:02.666Z,-1.7
2018-02-25T18:00:03.140Z,-1.7
2018-02-25T18:05:02.688Z,-1.7
2018-02-25T18:10:03.215Z,-1.7
2018-02-25T18:15:02.744Z,-1.8
2018-02-25T18:20:03.222Z,-1.8
2018-02-25T18:25:02.729Z,-1.8
2018-02-25T18:30:03.277Z,-1.8
2018-02-25T18:35:02.808Z,-2.2
2018-02-25T18:40:03.333Z,-2.2
2018-02-25T18:45:02.762Z,-2.5
2018-02-25T18:50:03.366Z,-2.7
2018-02-25T18:55:02.790Z,-2.5
2018-02-25T19:00:03.326Z,-2.7
2018-02-25T19:05:02.806Z,-2.7
2018-02-25T19:10:03.330Z,-2.7
2018-02-25T19:15:02.828Z,-2.7
2018-02-25T19:20:03.100Z,-2.9
2018-02-25T19:25:02.856Z,-3.0
2018-02-25T19:30:02.391Z,-3.0
2018-02-25T19:35:04.114Z,-3.2
2018-02-25T19:40:03.093Z,-3.2
2018-02-25T19:45:02.610Z,-3.2
2018-02-25T19:50:03.303Z,-3.2
2018-02-25T19:55:03.025Z,-3.5
2018-02-25T20:00:02.560Z,-3.5
2018-02-25T20:05:03.126Z,-3.5
2018-02-25T20:10:02.778Z,-3.7
2018-02-25T20:15:02.463Z,-3.7
2018-02-25T20:20:03.024Z,-3.5
2018-02-25T20:25:02.532Z,-3.7
2018-02-25T20:30:03.128Z,-3.7
2018-02-25T20:35:02.952Z,-3.7
2018-02-25T20:40:02.496Z,-3.7
2018-02-25T20:45:03.061Z,-3.9
2018-02-25T20:50:02.794Z,-3.9
2018-02-25T20:55:02.563Z,-3.9
2018-02-25T21:00:03.041Z,-3.9
2018-02-25T21:05:02.538Z,-4.0
2018-02-25T21:10:02.966Z,-3.9
2018-02-25T21:15:02.396Z,-4.0
2018-02-25T21:20:02.890Z,-4.0
2018-02-25T21:25:03.305Z,-4.3
2018-02-25T21:30:02.672Z,-4.0
2018-02-25T21:35:03.112Z,-4.3
2018-02-25T21:40:02.588Z,-4.3
2018-02-25T21:45:02.981Z,-4.5
2018-02-25T21:50:02.445Z,-4.5
2018-02-25T21:55:02.917Z,-4.3
2018-02-25T22:00:03.379Z,-4.5
2018-02-25T22:05:02.884Z,-4.5
2018-02-25T22:10:02.497Z,-4.3
2018-02-25T22:15:02.877Z,-4.3
2018-02-25T22:20:03.321Z,-4.3
2018-02-25T22:25:02.807Z,-4.3
2018-02-25T22:30:03.646Z,-4.3
2018-02-25T22:35:03.077Z,-4.3
2018-02-25T22:40:02.523Z,-4.3
2018-02-25T22:45:02.964Z,-4.3
2018-02-25T22:50:02.646Z,-4.3
2018-02-25T22:55:02.989Z,-3.9
2018-02-25T23:00:03.408Z,-3.7
2018-02-25T23:05:02.877Z,-3.7
2018-02-25T23:10:02.455Z,-3.5
2018-02-25T23:15:02.870Z,-3.5
2018-02-25T23:20:02.429Z,-3.2
2018-02-25T23:25:02.911Z,-3.2
2018-02-25T23:30:02.443Z,-3.5
2018-02-25T23:35:02.973Z,-3.7
2018-02-25T23:40:02.486Z,-3.9
2018-02-25T23:45:02.899Z,-3.9
2018-02-25T23:50:03.313Z,-4.0
2018-02-25T23:55:02.792Z,-4.0
